Hazlehurst, MS (39083)

2:12 PM CST on December 06, 2016 (GMT -0600)
Crystal Springs Farm Mkt | | Change Station

Elev 453 ft 31.95 °N, 90.34 °W | Updated 7 minutes ago

Overcast
Overcast
52.6 °F
Feels Like 52.6 °F
N
6.0
Wind Variable Wind from NW

Today
High -- | Low -- °F
--% Chance of Precip.
Yesterday
High -- | Low -- °F
Precip. -- in
Pressure 29.93 in
Visibility 10.0 miles
Clouds Overcast 1500 ft
Dew Point 50 °F
Humidity 92%
Rainfall 0.02 in
Snow Depth Not available.
6:48 AM 4:57 PM
Waxing Crescent, 44% visible
SPECI KHKS 062007Z 32006KT 10SM OVC015 11/08 A2993 RMK AO2 T01110083
Pressure 29.93 in
Visibility 10.0 miles
Clouds Overcast 1500 ft
Dew Point 50 °F
Humidity 92%
Rainfall 0.02 in
Snow Depth Not available.
6:48 AM 4:57 PM
Waxing Crescent, 44% visible
SPECI KHKS 062007Z 32006KT 10SM OVC015 11/08 A2993 RMK AO2 T01110083

10-Day Weather Forecast

Almanac

Astronomy

Dec. 06, 2016 Rise Set
Actual Time
Civil Twilight
Nautical Twilight
Astronomical Twilight
Moon
Length of Visible Light
Length of Day
Tomorrow will be .
, % of the Moon is Illuminated

Today's Extremes

State Highs State Lows

Community

WunderPhotos

Upload Photos

1,956,022 photos uploaded!

WunderBlog® & News

Nearby

Air Quality

  Air Quality AQ Index Pollutant
Not available.

Snow Depth

Station Depth Elevation

Earthquake Activity

City Distance Mag. Time & Date
Minimum magnitude displayed is 2.5.

Coastal Water Temperatures

Place Temperature

Stations

Nearby Weather Stations

Station Location Temp. Windchill Dew Point Humidity Wind Precip. Elev Updated Type
                   

Watches & Warnings

There are currently no watches in effect.